Whitney, Mississippi
Current Conditions -  °F | °C
As of 9:55 PM on Wednesday 22 Oct 2014 (Local Time) from KRNV Reporting Station
Clear Clear  
Wind Chill: 53°   Ceiling: Unl
Heat Index: 53°   Visibility: 10mi
Dew Point: 47°   Wind: 5mph
Humidity: 81%   Direction: 30°NNE
Pressure: 30.17"   Gusts: NA
Location:  33.8731°N, 90.5512°W
Report Text: KRNV 230255Z AUTO 03004KT 10SM CLR 12/09 A3017 RMK AO2 T01170086
Loading
Personal Weather Stations






























Interactive Weather Map New forecast layout! Learn more

10-Day Weather Forecast

Advertisements
Track Severe Weather on mobile